Dallas, Iowa
Current Conditions -  °F | °C
As of 9:35 AM on Friday 31 Oct 2014 (Local Time) from KOXV Reporting Station
Clear Clear  
Wind Chill: 20°   Ceiling: Unl
Heat Index: 32°   Visibility: 10mi
Dew Point: 18°   Wind: 20mph
Humidity: 55%   Direction: 340°NNW
Pressure: 30.45"   Gusts: NA
Location:  41.23°N, 93.24°W
Report Text: KOXV 311435Z AUTO 34017KT 10SM CLR M00/M08 A3045 RMK AO2
Loading
Personal Weather Stations






























Interactive Weather Map
Tropical Storm Tracking
New forecast layout! Learn more

10-Day Weather Forecast

Advertisements
Track Severe Weather on mobile